createdAt,value
2022-11-30T00:01:46.003Z,9.43
2022-11-30T00:04:15.179Z,8.98
2022-11-30T00:06:44.383Z,8.77
2022-11-30T00:09:13.507Z,7.55
2022-11-30T00:11:42.549Z,7.82
2022-11-30T00:14:12.888Z,8.35
2022-11-30T00:16:42.065Z,8.45
2022-11-30T00:19:11.062Z,8.88
2022-11-30T00:21:40.111Z,9.80
2022-11-30T00:24:09.455Z,8.85
2022-11-30T00:26:38.772Z,9.90
2022-11-30T00:29:07.725Z,9.07
2022-11-30T00:31:38.067Z,8.20
2022-11-30T00:34:07.068Z,9.27
2022-11-30T00:36:36.147Z,9.23
2022-11-30T00:39:05.464Z,9.15
2022-11-30T00:41:34.465Z,7.65
2022-11-30T00:44:03.431Z,8.15
2022-11-30T00:46:32.571Z,6.13
2022-11-30T00:49:02.997Z,7.20
2022-11-30T00:51:32.038Z,6.63
2022-11-30T00:54:00.992Z,7.45
2022-11-30T00:56:30.075Z,9.00
2022-11-30T00:58:59.023Z,8.90
2022-11-30T01:01:28.020Z,7.00
2022-11-30T01:03:57.070Z,8.02
2022-11-30T01:06:30.072Z,8.07
2022-11-30T01:08:59.958Z,9.18
2022-11-30T01:11:30.436Z,9.63
2022-11-30T01:14:02.393Z,8.60
2022-11-30T01:16:33.454Z,9.43
2022-11-30T01:19:02.700Z,10.30
2022-11-30T01:21:33.221Z,9.30
2022-11-30T01:24:02.323Z,10.38
2022-11-30T01:26:31.295Z,7.70
2022-11-30T01:29:00.278Z,7.35
2022-11-30T01:31:29.268Z,8.20
2022-11-30T01:33:58.246Z,7.88
2022-11-30T01:36:28.023Z,7.65
2022-11-30T01:38:59.440Z,9.30
2022-11-30T01:41:32.986Z,8.73
2022-11-30T01:44:35.129Z,7.97
2022-11-30T01:47:07.222Z,9.38
2022-11-30T01:49:39.378Z,8.30
2022-11-30T01:52:13.066Z,8.05
2022-11-30T01:54:48.645Z,5.97
2022-11-30T01:57:23.257Z,7.32
2022-11-30T01:59:54.523Z,8.30
2022-11-30T02:02:28.414Z,10.00
2022-11-30T02:04:57.858Z,9.30
2022-11-30T02:07:27.244Z,8.75
2022-11-30T02:09:57.709Z,8.75
2022-11-30T02:12:38.811Z,7.95
2022-11-30T02:15:13.291Z,7.20
2022-11-30T02:17:53.127Z,7.25
2022-11-30T02:20:48.107Z,7.18
2022-11-30T02:23:42.988Z,9.40
2022-11-30T02:29:14.911Z,7.88
2022-11-30T02:31:50.844Z,6.97
2022-11-30T02:34:21.995Z,6.63
2022-11-30T02:36:51.948Z,9.57
2022-11-30T02:39:22.751Z,7.95
2022-11-30T02:41:51.677Z,7.13
2022-11-30T02:44:24.101Z,7.93
2022-11-30T02:47:06.460Z,6.45
2022-11-30T02:49:42.325Z,7.55
2022-11-30T02:52:12.604Z,7.53
2022-11-30T02:54:41.744Z,6.65
2022-11-30T02:57:11.522Z,6.75
2022-11-30T02:59:42.513Z,7.88
2022-11-30T03:02:11.863Z,9.27
2022-11-30T03:04:40.821Z,6.82
2022-11-30T03:07:09.857Z,5.88
2022-11-30T03:09:38.778Z,6.50
2022-11-30T03:12:08.148Z,7.65
2022-11-30T03:14:37.116Z,7.15
2022-11-30T03:17:07.759Z,7.22
2022-11-30T03:19:36.784Z,7.25
2022-11-30T03:22:05.938Z,7.68
2022-11-30T03:24:34.865Z,7.40
2022-11-30T03:27:03.815Z,7.32
2022-11-30T03:29:32.844Z,5.75
2022-11-30T03:32:01.762Z,6.47
2022-11-30T03:34:32.352Z,8.43
2022-11-30T03:37:01.267Z,7.40
2022-11-30T03:39:30.402Z,8.45
2022-11-30T03:41:59.566Z,7.07
2022-11-30T03:44:29.933Z,7.63
2022-11-30T03:46:58.893Z,7.72
2022-11-30T03:49:27.976Z,7.63
2022-11-30T03:51:58.325Z,9.10
2022-11-30T03:54:27.273Z,6.40
2022-11-30T03:56:56.282Z,6.80
2022-11-30T03:59:25.187Z,6.88
2022-11-30T04:01:54.232Z,7.25
2022-11-30T04:04:23.383Z,8.40
2022-11-30T04:06:52.590Z,6.55
2022-11-30T04:09:23.099Z,8.38
2022-11-30T04:11:52.004Z,8.52
2022-11-30T04:14:20.981Z,7.18
2022-11-30T04:16:50.006Z,7.43
2022-11-30T04:19:18.914Z,7.50
2022-11-30T04:21:47.952Z,9.57
2022-11-30T04:24:16.884Z,8.88
2022-11-30T04:26:47.417Z,7.22
2022-11-30T04:29:16.511Z,6.65
2022-11-30T04:31:45.576Z,6.72
2022-11-30T04:34:14.678Z,7.50
2022-11-30T04:36:43.649Z,6.70
2022-11-30T04:39:12.679Z,6.93
2022-11-30T04:41:41.612Z,8.43
2022-11-30T04:44:12.052Z,9.18
2022-11-30T04:46:41.037Z,6.43
2022-11-30T04:49:10.150Z,9.10
2022-11-30T04:51:39.156Z,7.15
2022-11-30T04:54:08.251Z,5.97
2022-11-30T04:56:37.238Z,7.78
2022-11-30T04:59:06.214Z,8.95
2022-11-30T05:01:36.599Z,8.77
2022-11-30T05:04:05.826Z,7.20
2022-11-30T05:06:34.911Z,9.68
2022-11-30T05:09:03.843Z,8.93
2022-11-30T05:11:32.929Z,8.50
2022-11-30T05:14:02.121Z,7.57
2022-11-30T05:16:31.131Z,8.27
2022-11-30T05:19:01.600Z,8.15
2022-11-30T05:21:30.556Z,7.68
2022-11-30T05:23:59.720Z,8.50
2022-11-30T05:26:28.686Z,8.13
2022-11-30T05:28:57.696Z,10.13
2022-11-30T05:31:26.917Z,7.68
2022-11-30T05:33:56.116Z,8.73
2022-11-30T05:36:26.724Z,9.02
2022-11-30T05:38:55.815Z,8.18
2022-11-30T05:41:24.855Z,7.88
2022-11-30T05:43:54.063Z,7.93
2022-11-30T05:46:23.064Z,8.63
2022-11-30T05:48:52.053Z,7.05
2022-11-30T05:51:21.927Z,7.15
2022-11-30T05:53:52.258Z,8.10
2022-11-30T05:56:23.013Z,8.07
2022-11-30T05:58:52.207Z,8.13
2022-11-30T06:01:22.911Z,8.13
2022-11-30T06:03:52.342Z,8.20
2022-11-30T06:06:22.115Z,8.15
2022-11-30T06:08:52.628Z,8.05
2022-11-30T06:11:21.556Z,8.77
2022-11-30T06:13:50.506Z,8.57
2022-11-30T06:16:19.504Z,8.20
2022-11-30T06:18:48.613Z,8.50
2022-11-30T06:21:23.975Z,9.68
2022-11-30T06:23:54.975Z,6.32
2022-11-30T06:26:24.090Z,8.25
2022-11-30T06:28:53.099Z,7.18
2022-11-30T06:31:22.359Z,8.02
2022-11-30T06:33:51.505Z,8.52
2022-11-30T06:36:23.928Z,8.00
2022-11-30T06:38:54.515Z,8.05
2022-11-30T06:41:23.605Z,9.88
2022-11-30T06:43:52.544Z,7.63
2022-11-30T06:46:22.341Z,9.38
2022-11-30T06:48:51.929Z,9.30
2022-11-30T06:51:21.414Z,8.82
2022-11-30T06:53:50.329Z,9.38
2022-11-30T06:56:23.118Z,7.43
2022-11-30T06:58:54.439Z,10.18
2022-11-30T07:01:23.911Z,9.88
2022-11-30T07:03:53.530Z,9.27
2022-11-30T07:06:22.601Z,9.30
2022-11-30T07:08:51.577Z,9.95
2022-11-30T07:11:22.001Z,8.63
2022-11-30T07:13:50.906Z,9.90
2022-11-30T07:16:19.983Z,9.90
2022-11-30T07:18:48.961Z,10.13
2022-11-30T07:21:17.945Z,9.60
2022-11-30T07:24:04.365Z,9.93
2022-11-30T07:26:35.084Z,10.32
2022-11-30T07:29:05.385Z,9.27
2022-11-30T07:31:35.707Z,10.25
2022-11-30T07:34:06.953Z,8.23
2022-11-30T07:36:37.574Z,9.27
2022-11-30T07:39:06.694Z,10.32
2022-11-30T07:41:37.062Z,9.02
2022-11-30T07:44:06.813Z,10.13
2022-11-30T07:46:36.467Z,8.80
2022-11-30T07:49:06.126Z,9.88
2022-11-30T07:51:35.218Z,10.32
2022-11-30T07:54:04.377Z,10.63
2022-11-30T07:56:33.698Z,8.82
2022-11-30T07:59:05.063Z,10.88
2022-11-30T08:01:34.964Z,9.25
2022-11-30T08:04:04.313Z,10.60
2022-11-30T08:06:34.699Z,10.23
2022-11-30T08:09:05.321Z,10.85
2022-11-30T08:11:37.154Z,10.35
2022-11-30T08:14:07.533Z,11.20
2022-11-30T08:16:39.106Z,11.23
2022-11-30T08:19:08.402Z,10.10
2022-11-30T08:21:38.212Z,11.25
2022-11-30T08:24:07.728Z,11.65
2022-11-30T08:28:46.251Z,11.13
2022-11-30T08:31:17.928Z,12.27
2022-11-30T08:33:47.428Z,11.02
2022-11-30T08:36:17.644Z,11.60
2022-11-30T08:38:47.513Z,10.65
2022-11-30T08:41:19.875Z,12.23
2022-11-30T08:43:51.251Z,11.52
2022-11-30T08:49:27.086Z,11.75
2022-11-30T08:54:47.444Z,11.98
2022-11-30T08:57:17.551Z,13.68
2022-11-30T08:59:48.752Z,11.98
2022-11-30T09:02:19.725Z,12.07
2022-11-30T09:04:51.313Z,12.77
2022-11-30T09:07:20.384Z,13.00
2022-11-30T09:09:49.476Z,12.70
2022-11-30T09:12:18.481Z,13.48
2022-11-30T09:14:55.588Z,13.65
2022-11-30T09:17:26.674Z,12.82
2022-11-30T09:19:56.149Z,13.13
2022-11-30T09:22:25.351Z,11.35
2022-11-30T09:24:54.489Z,12.55
2022-11-30T09:27:23.696Z,13.43
2022-11-30T09:29:53.991Z,12.25
2022-11-30T09:32:22.934Z,14.15
2022-11-30T09:34:52.249Z,13.40
2022-11-30T09:37:22.252Z,12.50
2022-11-30T09:39:51.248Z,14.40
2022-11-30T09:42:40.483Z,13.07
2022-11-30T09:45:17.138Z,13.30
2022-11-30T09:48:23.768Z,13.77
2022-11-30T09:50:54.508Z,13.02
2022-11-30T09:57:42.809Z,11.80
2022-11-30T10:00:15.990Z,12.93
2022-11-30T10:02:45.514Z,13.82
2022-11-30T10:05:16.280Z,13.57
2022-11-30T10:07:57.661Z,14.48
2022-11-30T10:10:35.799Z,14.77
2022-11-30T10:13:19.045Z,13.93
2022-11-30T10:16:01.615Z,15.40
2022-11-30T10:18:42.292Z,16.02
2022-11-30T10:21:25.935Z,15.35
2022-11-30T10:24:09.452Z,15.25
2022-11-30T10:26:42.024Z,14.73
2022-11-30T10:29:19.345Z,16.35
2022-11-30T10:31:53.355Z,16.58
2022-11-30T10:34:24.549Z,16.20
2022-11-30T10:37:02.614Z,14.80
2022-11-30T10:39:35.818Z,15.23
2022-11-30T10:42:11.354Z,15.48
2022-11-30T10:44:43.626Z,16.33
2022-11-30T10:47:19.956Z,14.40
2022-11-30T10:49:52.855Z,13.93
2022-11-30T10:52:26.432Z,15.30
2022-11-30T10:55:03.745Z,13.65
2022-11-30T10:57:34.766Z,15.00
2022-11-30T11:00:08.686Z,16.80
2022-11-30T11:02:45.845Z,17.00
2022-11-30T11:05:21.693Z,17.40
2022-11-30T11:08:00.025Z,14.40
2022-11-30T11:10:36.492Z,15.40
2022-11-30T11:13:06.700Z,14.70
2022-11-30T11:15:36.484Z,14.40
2022-11-30T11:18:26.261Z,13.43
2022-11-30T11:21:06.302Z,14.68
2022-11-30T11:23:39.573Z,14.07
2022-11-30T11:26:17.048Z,12.15
2022-11-30T11:28:47.464Z,13.93
2022-11-30T11:31:21.045Z,14.02
2022-11-30T11:33:55.627Z,13.10
2022-11-30T11:36:28.380Z,13.43
2022-11-30T11:38:58.004Z,12.50
2022-11-30T11:41:29.611Z,14.82
2022-11-30T11:44:03.019Z,13.88
2022-11-30T11:46:33.309Z,15.35
2022-11-30T11:49:05.907Z,13.10
2022-11-30T11:51:36.763Z,13.70
2022-11-30T11:54:14.746Z,14.25
2022-11-30T11:56:44.005Z,13.40
2022-11-30T11:59:19.286Z,13.45
2022-11-30T12:01:59.548Z,13.02
2022-11-30T12:04:46.983Z,12.23
2022-11-30T12:07:26.863Z,12.57
2022-11-30T12:10:49.561Z,10.93
2022-11-30T12:13:03.218Z,11.15
2022-11-30T12:15:38.048Z,12.75
2022-11-30T12:18:23.739Z,12.15
2022-11-30T12:21:01.854Z,9.82
2022-11-30T12:24:00.644Z,11.45
2022-11-30T12:26:38.005Z,11.23
2022-11-30T12:29:25.314Z,11.68
2022-11-30T12:32:08.437Z,11.05
2022-11-30T12:35:02.999Z,10.05
2022-11-30T12:37:47.703Z,11.07
2022-11-30T12:40:27.816Z,11.40
2022-11-30T12:43:05.646Z,11.07
2022-11-30T12:45:38.663Z,11.70
2022-11-30T12:48:19.480Z,11.20
2022-11-30T12:51:08.270Z,11.40
2022-11-30T12:53:43.314Z,11.43
2022-11-30T12:58:57.832Z,11.80
2022-11-30T13:01:42.608Z,10.73
2022-11-30T13:04:17.716Z,10.32
2022-11-30T13:09:26.327Z,10.65
2022-11-30T13:12:00.665Z,11.00
2022-11-30T13:14:31.540Z,10.43
2022-11-30T13:17:04.072Z,10.55
2022-11-30T13:19:59.362Z,10.25
2022-11-30T13:22:38.155Z,10.05
2022-11-30T13:25:44.963Z,9.30
2022-11-30T13:28:19.836Z,7.90
2022-11-30T13:30:55.681Z,8.15
2022-11-30T13:33:49.517Z,8.38
2022-11-30T13:36:33.045Z,8.77
2022-11-30T13:39:26.864Z,8.95
2022-11-30T13:42:39.159Z,8.73
2022-11-30T13:45:30.383Z,8.32
2022-11-30T13:48:00.294Z,8.85
2022-11-30T13:50:38.253Z,9.27
2022-11-30T13:53:21.462Z,9.35
2022-11-30T13:56:00.913Z,8.60
2022-11-30T13:58:32.273Z,8.75
2022-11-30T14:01:21.248Z,8.40
2022-11-30T14:04:23.904Z,10.10
2022-11-30T14:06:55.464Z,9.50
2022-11-30T14:09:58.413Z,8.77
2022-11-30T14:13:01.030Z,7.40
2022-11-30T14:15:56.774Z,8.25
2022-11-30T14:21:18.796Z,8.38
2022-11-30T14:23:59.021Z,8.30
2022-11-30T14:26:36.346Z,8.18
2022-11-30T14:29:17.827Z,8.52
2022-11-30T14:31:55.785Z,8.77
2022-11-30T14:34:28.441Z,7.68
2022-11-30T14:37:01.802Z,6.88
2022-11-30T14:39:36.075Z,8.82
2022-11-30T14:42:07.799Z,8.65
2022-11-30T14:44:38.010Z,8.80
2022-11-30T14:47:22.430Z,10.02
2022-11-30T14:49:53.159Z,8.37
2022-11-30T14:52:43.401Z,8.82
2022-11-30T14:55:22.040Z,7.43
2022-11-30T14:58:02.567Z,8.82
2022-11-30T15:00:39.273Z,10.10
2022-11-30T15:03:20.297Z,10.20
2022-11-30T15:05:53.360Z,9.75
2022-11-30T15:08:23.151Z,9.77
2022-11-30T15:10:52.524Z,10.10
2022-11-30T15:13:22.035Z,9.05
2022-11-30T15:15:53.460Z,9.30
2022-11-30T15:18:25.347Z,10.25
2022-11-30T15:21:00.005Z,8.55
2022-11-30T15:23:29.908Z,7.80
2022-11-30T15:26:02.521Z,9.85
2022-11-30T15:28:35.517Z,7.85
2022-11-30T15:31:08.175Z,8.93
2022-11-30T15:33:43.970Z,8.23
2022-11-30T15:36:31.397Z,9.43
2022-11-30T15:39:03.805Z,8.93
2022-11-30T15:41:35.319Z,9.13
2022-11-30T15:44:04.679Z,8.05
2022-11-30T15:46:41.205Z,8.90
2022-11-30T15:49:21.055Z,8.80
2022-11-30T15:52:00.879Z,7.85
2022-11-30T15:54:47.478Z,8.55
2022-11-30T15:57:18.143Z,8.68
2022-11-30T16:00:07.038Z,8.10
2022-11-30T16:02:38.440Z,9.40
2022-11-30T16:05:25.620Z,8.30
2022-11-30T16:07:59.834Z,9.30
2022-11-30T16:10:31.362Z,8.50
2022-11-30T16:13:00.981Z,8.07
2022-11-30T16:15:34.102Z,8.68
2022-11-30T16:18:14.787Z,8.55
2022-11-30T16:20:49.054Z,8.20
2022-11-30T16:23:19.249Z,9.02
2022-11-30T16:25:50.603Z,10.90
2022-11-30T16:28:21.306Z,9.68
2022-11-30T16:30:51.164Z,9.18
2022-11-30T16:33:23.773Z,10.43
2022-11-30T16:35:57.384Z,8.90
2022-11-30T16:38:27.586Z,9.45
2022-11-30T16:40:57.299Z,8.50
2022-11-30T16:43:26.907Z,9.15
2022-11-30T16:45:56.385Z,8.77
2022-11-30T16:48:25.372Z,9.98
2022-11-30T16:51:00.987Z,9.77
2022-11-30T16:53:29.969Z,9.90
2022-11-30T16:55:58.989Z,8.75
2022-11-30T16:58:28.086Z,10.00
2022-11-30T17:01:00.323Z,9.55
2022-11-30T17:03:32.651Z,10.35
2022-11-30T17:06:03.221Z,9.13
2022-11-30T17:08:32.321Z,8.82
2022-11-30T17:11:01.725Z,9.80
2022-11-30T17:13:30.754Z,10.73
2022-11-30T17:15:59.834Z,9.50
2022-11-30T17:18:28.781Z,9.70
2022-11-30T17:21:03.716Z,8.85
2022-11-30T17:26:01.917Z,10.15
2022-11-30T17:28:30.905Z,10.15
2022-11-30T17:31:00.079Z,8.20
2022-11-30T17:33:33.428Z,11.40
2022-11-30T17:36:06.907Z,10.10
2022-11-30T17:38:37.226Z,9.13
2022-11-30T17:41:10.399Z,10.55
2022-11-30T17:43:42.264Z,10.25
2022-11-30T17:46:13.206Z,8.50
2022-11-30T17:48:43.182Z,9.15
2022-11-30T17:51:14.330Z,10.57
2022-11-30T17:53:44.414Z,10.20
2022-11-30T17:56:15.959Z,8.90
2022-11-30T17:58:46.474Z,9.95
2022-11-30T18:01:18.960Z,11.32
2022-11-30T18:03:48.811Z,10.55
2022-11-30T18:06:22.069Z,10.90
2022-11-30T18:08:51.084Z,9.75
2022-11-30T18:11:21.977Z,10.63
2022-11-30T18:13:53.625Z,10.20
2022-11-30T18:16:25.046Z,9.07
2022-11-30T18:18:56.375Z,9.20
2022-11-30T18:21:29.413Z,8.05
2022-11-30T18:23:59.520Z,8.98
2022-11-30T18:26:29.046Z,8.88
2022-11-30T18:29:00.506Z,9.52
2022-11-30T18:31:31.882Z,11.27
2022-11-30T18:34:02.670Z,9.75
2022-11-30T18:36:34.849Z,9.50
2022-11-30T18:39:04.107Z,11.30
2022-11-30T18:41:33.392Z,9.88
2022-11-30T18:44:02.567Z,9.35
2022-11-30T18:46:31.974Z,10.48
2022-11-30T18:49:01.793Z,9.75
2022-11-30T18:51:33.197Z,10.00
2022-11-30T18:54:03.899Z,9.93
2022-11-30T18:56:34.521Z,10.10
2022-11-30T18:59:06.052Z,9.32
2022-11-30T19:01:36.105Z,9.32
2022-11-30T19:04:07.426Z,10.18
2022-11-30T19:06:39.240Z,8.55
2022-11-30T19:09:10.941Z,9.20
2022-11-30T19:11:41.002Z,8.13
2022-11-30T19:14:13.080Z,10.05
2022-11-30T19:16:43.115Z,9.75
2022-11-30T19:19:14.230Z,8.60
2022-11-30T19:21:47.975Z,11.50
2022-11-30T19:24:17.767Z,12.60
2022-11-30T19:26:46.969Z,12.35
2022-11-30T19:29:16.156Z,11.32
2022-11-30T19:31:45.191Z,12.18
2022-11-30T19:34:14.321Z,10.63
2022-11-30T19:36:43.454Z,10.75
2022-11-30T19:39:13.877Z,10.25
2022-11-30T19:41:42.881Z,9.77
2022-11-30T19:44:14.935Z,10.43
2022-11-30T19:46:44.403Z,11.15
2022-11-30T19:49:13.710Z,11.65
2022-11-30T19:51:42.696Z,9.18
2022-11-30T19:54:13.276Z,9.05
2022-11-30T19:56:43.310Z,11.15
2022-11-30T19:59:12.441Z,10.25
2022-11-30T20:01:41.880Z,8.77
2022-11-30T20:04:11.107Z,11.02
2022-11-30T20:06:40.657Z,11.18
2022-11-30T20:09:12.001Z,11.90
2022-11-30T20:11:42.514Z,11.77
2022-11-30T20:14:17.038Z,12.70
2022-11-30T20:16:46.248Z,11.70
2022-11-30T20:19:16.793Z,12.40
2022-11-30T20:21:45.940Z,11.77
2022-11-30T20:24:15.475Z,14.55
2022-11-30T20:26:47.101Z,14.93
2022-11-30T20:29:17.583Z,13.38
2022-11-30T20:31:48.488Z,19.08
2022-11-30T20:34:18.211Z,16.02
2022-11-30T20:36:47.206Z,15.80
2022-11-30T20:39:16.270Z,13.85
2022-11-30T20:41:46.656Z,10.27
2022-11-30T20:44:17.004Z,15.63
2022-11-30T20:46:46.131Z,15.70
2022-11-30T20:49:17.969Z,16.27
2022-11-30T20:51:47.345Z,14.63
2022-11-30T20:54:17.888Z,16.08
2022-11-30T20:56:51.075Z,17.33
2022-11-30T20:59:23.830Z,17.00
2022-11-30T21:01:53.172Z,16.02
2022-11-30T21:04:25.828Z,16.75
2022-11-30T21:06:55.422Z,16.88
2022-11-30T21:09:24.452Z,16.02
2022-11-30T21:11:54.908Z,17.13
2022-11-30T21:14:24.048Z,15.27
2022-11-30T21:16:53.034Z,16.20
2022-11-30T21:19:22.215Z,16.73
2022-11-30T21:21:51.207Z,14.13
2022-11-30T21:24:21.281Z,15.35
2022-11-30T21:26:50.355Z,14.15
2022-11-30T21:29:20.790Z,15.95
2022-11-30T21:31:49.812Z,15.32
2022-11-30T21:34:18.972Z,14.98
2022-11-30T21:36:48.987Z,14.88
2022-11-30T21:39:17.957Z,13.60
2022-11-30T21:41:47.004Z,14.07
2022-11-30T21:44:17.170Z,12.77
2022-11-30T21:46:48.514Z,13.02
2022-11-30T21:49:17.882Z,15.32
2022-11-30T21:51:47.132Z,15.75
2022-11-30T21:54:16.099Z,13.60
2022-11-30T21:56:46.084Z,13.98
2022-11-30T21:59:16.034Z,14.75
2022-11-30T22:01:47.660Z,15.38
2022-11-30T22:04:17.056Z,14.52
2022-11-30T22:06:46.106Z,14.13
2022-11-30T22:09:16.666Z,17.38
2022-11-30T22:11:46.696Z,16.88
2022-11-30T22:14:17.914Z,16.50
2022-11-30T22:16:48.426Z,18.15
2022-11-30T22:19:18.333Z,18.50
2022-11-30T22:21:50.248Z,17.60
2022-11-30T22:24:19.909Z,19.95
2022-11-30T22:26:50.123Z,17.75
2022-11-30T22:29:22.331Z,18.90
2022-11-30T22:31:55.884Z,19.67
2022-11-30T22:34:24.855Z,20.10
2022-11-30T22:36:53.958Z,19.45
2022-11-30T22:39:23.231Z,20.90
2022-11-30T22:41:55.585Z,18.15
2022-11-30T22:44:25.758Z,17.48
2022-11-30T22:46:56.406Z,17.85
2022-11-30T22:49:25.820Z,17.42
2022-11-30T22:51:54.905Z,19.30
2022-11-30T22:54:23.794Z,18.30
2022-11-30T22:56:52.790Z,16.90
2022-11-30T22:59:21.659Z,16.15
2022-11-30T23:01:51.625Z,19.40
2022-11-30T23:04:23.797Z,20.35
2022-11-30T23:06:53.187Z,18.25
2022-11-30T23:09:24.025Z,17.58
2022-11-30T23:11:52.995Z,15.82
2022-11-30T23:14:21.993Z,16.77
2022-11-30T23:16:50.945Z,17.48
2022-11-30T23:19:21.316Z,17.25
2022-11-30T23:21:50.685Z,16.83
2022-11-30T23:24:21.524Z,16.48
2022-11-30T23:26:51.011Z,15.80
2022-11-30T23:29:20.059Z,17.58
2022-11-30T23:31:49.550Z,17.92
2022-11-30T23:34:21.244Z,18.75
2022-11-30T23:36:51.921Z,18.05
2022-11-30T23:39:21.393Z,18.08
2022-11-30T23:41:50.603Z,16.23
2022-11-30T23:44:19.798Z,16.60
2022-11-30T23:46:49.741Z,15.98
2022-11-30T23:49:18.764Z,16.70
2022-11-30T23:51:47.802Z,17.42
2022-11-30T23:54:18.196Z,15.48
2022-11-30T23:56:48.680Z,16.60
2022-11-30T23:59:17.655Z,13.55
